sensor_id;sensor_type;location;lat;lon;timestamp;pressure;altitude;pressure_sealevel;temperature;humidity
6942;BME280;3510;43.200;27.920;2023-05-07T00:02:06;101236.53;;;21.85;34.48
6942;BME280;3510;43.200;27.920;2023-05-07T00:04:34;101183.31;;;22.37;33.04
6942;BME280;3510;43.200;27.920;2023-05-07T00:07:04;101236.94;;;21.94;34.08
6942;BME280;3510;43.200;27.920;2023-05-07T00:09:31;101190.63;;;20.81;35.65
6942;BME280;3510;43.200;27.920;2023-05-07T00:11:58;101236.66;;;20.63;36.73
6942;BME280;3510;43.200;27.920;2023-05-07T00:14:25;101219.09;;;21.58;34.89
6942;BME280;3510;43.200;27.920;2023-05-07T00:16:52;101254.22;;;20.91;36.32
6942;BME280;3510;43.200;27.920;2023-05-07T00:19:19;101252.81;;;21.14;36.47
6942;BME280;3510;43.200;27.920;2023-05-07T00:21:47;101244.63;;;21.57;35.71
6942;BME280;3510;43.200;27.920;2023-05-07T00:24:13;101221.56;;;21.57;35.60
6942;BME280;3510;43.200;27.920;2023-05-07T00:26:40;101130.09;;;20.63;36.05
6942;BME280;3510;43.200;27.920;2023-05-07T00:29:07;101223.63;;;20.92;36.61
6942;BME280;3510;43.200;27.920;2023-05-07T00:31:33;101246.06;;;21.16;36.54
6942;BME280;3510;43.200;27.920;2023-05-07T00:34:00;101241.84;;;21.16;36.65
6942;BME280;3510;43.200;27.920;2023-05-07T00:36:26;101247.44;;;21.43;36.27
6942;BME280;3510;43.200;27.920;2023-05-07T00:38:56;101246.38;;;21.22;36.42
6942;BME280;3510;43.200;27.920;2023-05-07T00:41:23;101252.22;;;21.19;36.80
6942;BME280;3510;43.200;27.920;2023-05-07T00:43:50;101261.47;;;20.82;37.52
6942;BME280;3510;43.200;27.920;2023-05-07T00:46:17;101249.50;;;20.81;37.81
6942;BME280;3510;43.200;27.920;2023-05-07T00:48:44;101252.75;;;20.78;37.62
6942;BME280;3510;43.200;27.920;2023-05-07T00:51:10;101264.63;;;20.43;38.34
6942;BME280;3510;43.200;27.920;2023-05-07T00:53:37;101259.66;;;20.97;37.65
6942;BME280;3510;43.200;27.920;2023-05-07T00:56:07;101265.56;;;20.78;37.77
6942;BME280;3510;43.200;27.920;2023-05-07T00:58:35;101258.31;;;20.69;37.72
6942;BME280;3510;43.200;27.920;2023-05-07T01:01:02;101259.97;;;21.03;37.46
6942;BME280;3510;43.200;27.920;2023-05-07T01:03:30;101279.97;;;20.43;38.43
6942;BME280;3510;43.200;27.920;2023-05-07T01:05:56;101258.69;;;20.77;37.99
6942;BME280;3510;43.200;27.920;2023-05-07T01:08:24;101278.31;;;19.96;39.07
6942;BME280;3510;43.200;27.920;2023-05-07T01:10:53;101280.00;;;20.12;38.91
6942;BME280;3510;43.200;27.920;2023-05-07T01:13:21;101276.22;;;20.53;38.20
6942;BME280;3510;43.200;27.920;2023-05-07T01:15:49;101277.53;;;19.97;38.90
6942;BME280;3510;43.200;27.920;2023-05-07T01:18:15;101261.88;;;20.24;38.80
6942;BME280;3510;43.200;27.920;2023-05-07T01:20:42;101261.59;;;20.18;38.73
6942;BME280;3510;43.200;27.920;2023-05-07T01:23:10;101248.47;;;19.95;38.91
6942;BME280;3510;43.200;27.920;2023-05-07T01:25:37;101272.03;;;20.39;38.02
6942;BME280;3510;43.200;27.920;2023-05-07T01:28:04;101266.94;;;20.22;38.20
6942;BME280;3510;43.200;27.920;2023-05-07T01:30:31;101263.63;;;20.09;38.64
6942;BME280;3510;43.200;27.920;2023-05-07T01:32:58;101262.53;;;20.03;38.86
6942;BME280;3510;43.200;27.920;2023-05-07T01:35:27;101257.28;;;20.49;37.25
6942;BME280;3510;43.200;27.920;2023-05-07T01:37:55;101264.84;;;20.64;37.15
6942;BME280;3510;43.200;27.920;2023-05-07T01:40:23;101258.03;;;20.81;36.42
6942;BME280;3510;43.200;27.920;2023-05-07T01:42:50;101253.34;;;20.56;36.97
6942;BME280;3510;43.200;27.920;2023-05-07T01:45:17;101254.56;;;20.63;36.67
6942;BME280;3510;43.200;27.920;2023-05-07T01:47:44;101256.25;;;20.80;36.10
6942;BME280;3510;43.200;27.920;2023-05-07T01:50:10;101239.22;;;20.14;37.46
6942;BME280;3510;43.200;27.920;2023-05-07T01:52:37;101241.59;;;20.43;37.08
6942;BME280;3510;43.200;27.920;2023-05-07T01:55:05;101265.28;;;20.56;36.37
6942;BME280;3510;43.200;27.920;2023-05-07T01:57:33;101253.72;;;20.31;36.99
6942;BME280;3510;43.200;27.920;2023-05-07T02:00:00;101254.06;;;20.53;36.74
6942;BME280;3510;43.200;27.920;2023-05-07T02:02:30;101243.44;;;20.13;37.36
6942;BME280;3510;43.200;27.920;2023-05-07T02:04:56;101245.75;;;20.58;36.71
6942;BME280;3510;43.200;27.920;2023-05-07T02:07:23;101230.56;;;20.61;36.38
6942;BME280;3510;43.200;27.920;2023-05-07T02:09:50;101234.50;;;20.21;37.13
6942;BME280;3510;43.200;27.920;2023-05-07T02:12:16;101240.34;;;20.02;37.62
6942;BME280;3510;43.200;27.920;2023-05-07T02:14:47;101242.81;;;20.17;37.26
6942;BME280;3510;43.200;27.920;2023-05-07T02:17:13;101233.53;;;20.52;35.96
6942;BME280;3510;43.200;27.920;2023-05-07T02:19:40;101217.06;;;20.47;35.70
6942;BME280;3510;43.200;27.920;2023-05-07T02:22:07;101260.75;;;19.86;36.71
6942;BME280;3510;43.200;27.920;2023-05-07T02:24:34;101234.88;;;20.45;36.05
6942;BME280;3510;43.200;27.920;2023-05-07T02:27:01;101225.28;;;20.58;35.81
6942;BME280;3510;43.200;27.920;2023-05-07T02:29:28;101227.94;;;20.59;36.00
6942;BME280;3510;43.200;27.920;2023-05-07T02:31:56;101230.50;;;20.59;35.77
6942;BME280;3510;43.200;27.920;2023-05-07T02:34:22;101233.94;;;20.60;35.78
6942;BME280;3510;43.200;27.920;2023-05-07T02:36:49;101240.47;;;20.38;35.67
6942;BME280;3510;43.200;27.920;2023-05-07T02:39:16;101238.28;;;20.78;35.15
6942;BME280;3510;43.200;27.920;2023-05-07T02:41:42;101237.31;;;21.11;34.52
6942;BME280;3510;43.200;27.920;2023-05-07T02:44:09;101244.31;;;20.97;34.62
6942;BME280;3510;43.200;27.920;2023-05-07T02:46:35;101238.88;;;20.40;35.53
6942;BME280;3510;43.200;27.920;2023-05-07T02:49:08;101237.91;;;20.05;36.44
6942;BME280;3510;43.200;27.920;2023-05-07T02:51:35;101252.09;;;20.82;35.20
6942;BME280;3510;43.200;27.920;2023-05-07T02:54:01;101244.38;;;20.98;34.84
6942;BME280;3510;43.200;27.920;2023-05-07T02:56:29;101252.59;;;21.81;33.37
6942;BME280;3510;43.200;27.920;2023-05-07T02:58:57;101255.94;;;22.17;32.62
6942;BME280;3510;43.200;27.920;2023-05-07T03:01:23;101252.59;;;21.81;33.22
6942;BME280;3510;43.200;27.920;2023-05-07T03:03:50;101247.03;;;20.66;34.40
6942;BME280;3510;43.200;27.920;2023-05-07T03:06:20;101245.13;;;20.96;34.12
6942;BME280;3510;43.200;27.920;2023-05-07T03:08:47;101257.38;;;20.85;33.66
6942;BME280;3510;43.200;27.920;2023-05-07T03:11:13;101243.97;;;21.25;33.48
6942;BME280;3510;43.200;27.920;2023-05-07T03:13:40;101234.59;;;21.08;32.93
6942;BME280;3510;43.200;27.920;2023-05-07T03:16:08;101250.56;;;20.86;34.12
6942;BME280;3510;43.200;27.920;2023-05-07T03:18:35;101257.41;;;21.03;33.99
6942;BME280;3510;43.200;27.920;2023-05-07T03:21:02;101252.50;;;21.79;32.56
6942;BME280;3510;43.200;27.920;2023-05-07T03:23:30;101236.72;;;21.70;32.21
6942;BME280;3510;43.200;27.920;2023-05-07T03:26:02;101256.09;;;22.02;31.99
6942;BME280;3510;43.200;27.920;2023-05-07T03:28:29;101236.94;;;21.57;32.72
6942;BME280;3510;43.200;27.920;2023-05-07T03:30:56;101230.00;;;21.18;33.28
6942;BME280;3510;43.200;27.920;2023-05-07T03:33:26;101260.25;;;21.43;33.51
6942;BME280;3510;43.200;27.920;2023-05-07T03:35:53;101264.66;;;21.65;32.90
6942;BME280;3510;43.200;27.920;2023-05-07T03:38:20;101261.63;;;21.55;33.59
6942;BME280;3510;43.200;27.920;2023-05-07T03:40:48;101258.59;;;21.81;32.90
6942;BME280;3510;43.200;27.920;2023-05-07T03:43:14;101247.13;;;21.73;31.97
6942;BME280;3510;43.200;27.920;2023-05-07T03:45:42;101228.22;;;22.10;31.14
6942;BME280;3510;43.200;27.920;2023-05-07T03:48:22;101255.25;;;23.00;30.72
6942;BME280;3510;43.200;27.920;2023-05-07T03:50:50;101280.22;;;22.64;30.86
6942;BME280;3510;43.200;27.920;2023-05-07T03:53:17;101281.81;;;22.62;31.31
6942;BME280;3510;43.200;27.920;2023-05-07T03:55:43;101268.19;;;22.63;30.92
6942;BME280;3510;43.200;27.920;2023-05-07T03:58:11;101291.16;;;23.85;29.84
6942;BME280;3510;43.200;27.920;2023-05-07T04:00:38;101291.06;;;23.61;29.37
6942;BME280;3510;43.200;27.920;2023-05-07T04:03:06;101274.00;;;23.20;29.91
6942;BME280;3510;43.200;27.920;2023-05-07T04:05:33;101261.34;;;22.83;30.35
6942;BME280;3510;43.200;27.920;2023-05-07T04:08:01;101274.13;;;24.11;29.50
6942;BME280;3510;43.200;27.920;2023-05-07T04:10:29;101286.34;;;23.95;30.50
6942;BME280;3510;43.200;27.920;2023-05-07T04:12:56;101269.16;;;24.16;29.87
6942;BME280;3510;43.200;27.920;2023-05-07T04:15:24;101305.44;;;24.00;29.92
6942;BME280;3510;43.200;27.920;2023-05-07T04:17:52;101301.28;;;22.96;30.51
6942;BME280;3510;43.200;27.920;2023-05-07T04:20:18;101299.75;;;23.86;29.54
6942;BME280;3510;43.200;27.920;2023-05-07T04:22:45;101287.75;;;22.80;30.42
6942;BME280;3510;43.200;27.920;2023-05-07T04:25:12;101308.31;;;22.61;30.67
6942;BME280;3510;43.200;27.920;2023-05-07T04:27:39;101259.84;;;22.88;30.15
6942;BME280;3510;43.200;27.920;2023-05-07T04:30:21;101279.41;;;23.26;29.97
6942;BME280;3510;43.200;27.920;2023-05-07T04:32:49;101274.88;;;23.64;29.51
6942;BME280;3510;43.200;27.920;2023-05-07T04:35:16;101291.28;;;23.24;29.81
6942;BME280;3510;43.200;27.920;2023-05-07T04:37:43;101270.72;;;22.82;30.34
6942;BME280;3510;43.200;27.920;2023-05-07T04:40:10;101311.78;;;23.02;30.48
6942;BME280;3510;43.200;27.920;2023-05-07T04:42:37;101280.81;;;22.78;30.34
6942;BME280;3510;43.200;27.920;2023-05-07T04:45:05;101321.13;;;22.61;30.81
6942;BME280;3510;43.200;27.920;2023-05-07T04:47:34;101302.25;;;22.59;30.82
6942;BME280;3510;43.200;27.920;2023-05-07T04:50:02;101314.31;;;23.85;29.24
6942;BME280;3510;43.200;27.920;2023-05-07T04:52:29;101316.38;;;23.30;30.49
6942;BME280;3510;43.200;27.920;2023-05-07T04:54:58;101269.75;;;23.21;30.24
6942;BME280;3510;43.200;27.920;2023-05-07T04:57:25;101317.41;;;23.99;29.46
6942;BME280;3510;43.200;27.920;2023-05-07T05:00:07;101317.75;;;24.32;29.32
6942;BME280;3510;43.200;27.920;2023-05-07T05:02:34;101317.31;;;24.20;29.32
6942;BME280;3510;43.200;27.920;2023-05-07T05:05:03;101313.09;;;24.45;29.15
6942;BME280;3510;43.200;27.920;2023-05-07T05:07:30;101322.19;;;24.12;29.18
6942;BME280;3510;43.200;27.920;2023-05-07T05:09:57;101322.94;;;24.56;28.77
6942;BME280;3510;43.200;27.920;2023-05-07T05:12:24;101302.53;;;24.14;29.05
6942;BME280;3510;43.200;27.920;2023-05-07T05:14:51;101282.75;;;22.83;30.80
6942;BME280;3510;43.200;27.920;2023-05-07T05:17:18;101318.59;;;23.85;29.47
6942;BME280;3510;43.200;27.920;2023-05-07T05:19:44;101325.72;;;24.38;28.73
6942;BME280;3510;43.200;27.920;2023-05-07T05:22:12;101305.94;;;24.37;28.77
6942;BME280;3510;43.200;27.920;2023-05-07T05:24:39;101319.00;;;24.66;28.09
6942;BME280;3510;43.200;27.920;2023-05-07T05:27:06;101329.75;;;25.83;27.25
6942;BME280;3510;43.200;27.920;2023-05-07T05:29:32;101287.69;;;24.54;28.00
6942;BME280;3510;43.200;27.920;2023-05-07T05:32:13;101316.81;;;24.53;28.51
6942;BME280;3510;43.200;27.920;2023-05-07T05:34:40;101328.44;;;24.42;29.08
6942;BME280;3510;43.200;27.920;2023-05-07T05:37:10;101338.94;;;24.72;28.65
6942;BME280;3510;43.200;27.920;2023-05-07T05:42:14;101325.22;;;24.97;27.85
6942;BME280;3510;43.200;27.920;2023-05-07T05:44:41;101335.72;;;24.31;28.81
6942;BME280;3510;43.200;27.920;2023-05-07T05:47:09;101343.75;;;25.10;28.42
6942;BME280;3510;43.200;27.920;2023-05-07T05:49:35;101330.72;;;25.60;27.68
6942;BME280;3510;43.200;27.920;2023-05-07T05:52:02;101342.44;;;25.77;27.79
6942;BME280;3510;43.200;27.920;2023-05-07T05:54:29;101349.25;;;26.33;27.22
6942;BME280;3510;43.200;27.920;2023-05-07T05:56:57;101338.25;;;25.54;27.69
6942;BME280;3510;43.200;27.920;2023-05-07T05:59:26;101337.03;;;25.97;27.63
6942;BME280;3510;43.200;27.920;2023-05-07T06:01:53;101346.28;;;25.89;27.02
6942;BME280;3510;43.200;27.920;2023-05-07T06:04:25;101287.91;;;24.60;28.79
6942;BME280;3510;43.200;27.920;2023-05-07T06:06:51;101278.34;;;24.81;28.55
6942;BME280;3510;43.200;27.920;2023-05-07T06:09:18;101352.22;;;25.61;27.69
6942;BME280;3510;43.200;27.920;2023-05-07T06:11:45;101326.53;;;25.91;26.73
6942;BME280;3510;43.200;27.920;2023-05-07T06:14:14;101349.13;;;25.71;27.27
6942;BME280;3510;43.200;27.920;2023-05-07T06:16:44;101331.78;;;26.52;26.96
6942;BME280;3510;43.200;27.920;2023-05-07T06:19:12;101359.56;;;26.61;26.97
6942;BME280;3510;43.200;27.920;2023-05-07T06:21:43;101356.72;;;25.93;28.11
6942;BME280;3510;43.200;27.920;2023-05-07T06:24:10;101362.47;;;26.43;27.32
6942;BME280;3510;43.200;27.920;2023-05-07T06:26:47;101353.50;;;26.59;27.68
6942;BME280;3510;43.200;27.920;2023-05-07T06:29:14;101361.28;;;26.61;27.69
6942;BME280;3510;43.200;27.920;2023-05-07T06:31:42;101363.75;;;25.99;27.04
6942;BME280;3510;43.200;27.920;2023-05-07T06:34:10;101328.81;;;26.10;27.46
6942;BME280;3510;43.200;27.920;2023-05-07T06:36:40;101361.13;;;24.68;28.90
6942;BME280;3510;43.200;27.920;2023-05-07T06:39:09;101332.75;;;24.20;29.58
6942;BME280;3510;43.200;27.920;2023-05-07T06:42:20;101353.88;;;24.58;28.81
6942;BME280;3510;43.200;27.920;2023-05-07T06:49:58;101282.78;;;24.37;28.63
6942;BME280;3510;43.200;27.920;2023-05-07T06:52:24;101320.47;;;25.09;28.12
6942;BME280;3510;43.200;27.920;2023-05-07T06:54:51;101313.72;;;25.94;30.03
6942;BME280;3510;43.200;27.920;2023-05-07T06:57:19;101342.97;;;26.23;31.28
6942;BME280;3510;43.200;27.920;2023-05-07T06:59:46;101285.88;;;26.74;30.39
6942;BME280;3510;43.200;27.920;2023-05-07T07:02:13;101300.94;;;26.92;29.37
6942;BME280;3510;43.200;27.920;2023-05-07T07:07:15;101290.16;;;27.08;30.34
6942;BME280;3510;43.200;27.920;2023-05-07T07:09:42;101340.53;;;26.89;30.70
6942;BME280;3510;43.200;27.920;2023-05-07T07:14:48;101360.53;;;27.30;29.87
6942;BME280;3510;43.200;27.920;2023-05-07T07:17:16;101361.59;;;27.06;30.21
6942;BME280;3510;43.200;27.920;2023-05-07T07:19:42;101370.63;;;26.57;29.02
6942;BME280;3510;43.200;27.920;2023-05-07T07:22:09;101367.91;;;26.84;30.00
6942;BME280;3510;43.200;27.920;2023-05-07T07:24:36;101368.31;;;26.99;30.88
6942;BME280;3510;43.200;27.920;2023-05-07T07:27:04;101365.94;;;26.74;30.12
6942;BME280;3510;43.200;27.920;2023-05-07T07:29:43;101370.88;;;27.30;30.25
6942;BME280;3510;43.200;27.920;2023-05-07T07:32:11;101370.09;;;27.34;31.13
6942;BME280;3510;43.200;27.920;2023-05-07T07:34:39;101340.75;;;27.32;30.23
6942;BME280;3510;43.200;27.920;2023-05-07T07:37:05;101363.03;;;27.63;30.05
6942;BME280;3510;43.200;27.920;2023-05-07T07:39:33;101311.97;;;27.18;30.27
6942;BME280;3510;43.200;27.920;2023-05-07T07:42:00;101337.59;;;27.10;30.76
6942;BME280;3510;43.200;27.920;2023-05-07T07:44:27;101364.84;;;27.31;31.03
6942;BME280;3510;43.200;27.920;2023-05-07T07:46:54;101355.53;;;27.04;31.23
6942;BME280;3510;43.200;27.920;2023-05-07T07:49:22;101327.13;;;27.04;31.50
6942;BME280;3510;43.200;27.920;2023-05-07T07:51:49;101369.41;;;27.41;31.72
6942;BME280;3510;43.200;27.920;2023-05-07T07:54:16;101394.22;;;27.01;32.04
6942;BME280;3510;43.200;27.920;2023-05-07T07:56:43;101385.72;;;26.73;33.07
6942;BME280;3510;43.200;27.920;2023-05-07T07:59:11;101363.72;;;27.19;33.19
6942;BME280;3510;43.200;27.920;2023-05-07T08:01:39;101362.78;;;27.17;32.54
6942;BME280;3510;43.200;27.920;2023-05-07T08:04:06;101396.41;;;26.86;34.26
6942;BME280;3510;43.200;27.920;2023-05-07T08:06:34;101391.09;;;27.11;33.98
6942;BME280;3510;43.200;27.920;2023-05-07T08:09:01;101397.22;;;27.16;34.99
6942;BME280;3510;43.200;27.920;2023-05-07T08:11:31;101385.19;;;27.52;35.61
6942;BME280;3510;43.200;27.920;2023-05-07T08:13:58;101366.84;;;27.42;35.04
6942;BME280;3510;43.200;27.920;2023-05-07T08:16:26;101385.84;;;27.78;34.19
6942;BME280;3510;43.200;27.920;2023-05-07T08:18:53;101394.97;;;27.63;34.10
6942;BME280;3510;43.200;27.920;2023-05-07T08:21:21;101388.00;;;27.62;33.83
6942;BME280;3510;43.200;27.920;2023-05-07T08:23:49;101391.06;;;27.81;34.25
6942;BME280;3510;43.200;27.920;2023-05-07T08:26:18;101370.38;;;27.46;34.83
6942;BME280;3510;43.200;27.920;2023-05-07T08:28:46;101333.66;;;27.23;33.71
6942;BME280;3510;43.200;27.920;2023-05-07T08:31:26;101383.84;;;28.05;33.19
6942;BME280;3510;43.200;27.920;2023-05-07T08:33:53;101362.50;;;27.76;32.54
6942;BME280;3510;43.200;27.920;2023-05-07T08:36:24;101383.97;;;27.73;32.46
6942;BME280;3510;43.200;27.920;2023-05-07T08:38:52;101329.53;;;27.31;32.46
6942;BME280;3510;43.200;27.920;2023-05-07T08:41:27;101383.78;;;28.02;33.42
6942;BME280;3510;43.200;27.920;2023-05-07T08:43:57;101387.38;;;28.09;32.76
6942;BME280;3510;43.200;27.920;2023-05-07T08:46:25;101389.50;;;28.27;32.86
6942;BME280;3510;43.200;27.920;2023-05-07T08:48:52;101380.09;;;27.91;32.69
6942;BME280;3510;43.200;27.920;2023-05-07T08:51:20;101377.56;;;27.92;32.89
6942;BME280;3510;43.200;27.920;2023-05-07T08:53:49;101370.06;;;28.47;32.22
6942;BME280;3510;43.200;27.920;2023-05-07T08:56:18;101363.88;;;28.37;32.30
6942;BME280;3510;43.200;27.920;2023-05-07T08:58:47;101387.38;;;28.09;33.65
6942;BME280;3510;43.200;27.920;2023-05-07T09:01:16;101386.03;;;27.87;34.22
6942;BME280;3510;43.200;27.920;2023-05-07T09:03:45;101386.25;;;27.96;33.84
6942;BME280;3510;43.200;27.920;2023-05-07T09:06:12;101327.00;;;27.70;33.11
6942;BME280;3510;43.200;27.920;2023-05-07T09:08:48;101384.91;;;27.76;33.87
6942;BME280;3510;43.200;27.920;2023-05-07T09:11:21;101380.94;;;27.91;33.50
6942;BME280;3510;43.200;27.920;2023-05-07T09:13:53;101379.38;;;27.96;33.67
6942;BME280;3510;43.200;27.920;2023-05-07T09:16:21;101387.66;;;27.82;34.05
6942;BME280;3510;43.200;27.920;2023-05-07T09:18:51;101361.41;;;27.32;35.00
6942;BME280;3510;43.200;27.920;2023-05-07T09:21:21;101385.66;;;27.35;35.36
6942;BME280;3510;43.200;27.920;2023-05-07T09:23:51;101332.34;;;27.40;33.57
6942;BME280;3510;43.200;27.920;2023-05-07T09:26:22;101377.19;;;27.42;34.27
6942;BME280;3510;43.200;27.920;2023-05-07T09:28:50;101375.22;;;27.68;33.64
6942;BME280;3510;43.200;27.920;2023-05-07T09:31:17;101368.88;;;27.19;33.79
6942;BME280;3510;43.200;27.920;2023-05-07T09:33:45;101370.75;;;27.61;34.32
6942;BME280;3510;43.200;27.920;2023-05-07T09:36:11;101372.66;;;27.70;34.01
6942;BME280;3510;43.200;27.920;2023-05-07T09:38:39;101328.66;;;27.31;33.99
6942;BME280;3510;43.200;27.920;2023-05-07T09:41:07;101364.22;;;27.76;33.76
6942;BME280;3510;43.200;27.920;2023-05-07T09:43:37;101362.59;;;27.81;34.41
6942;BME280;3510;43.200;27.920;2023-05-07T09:46:07;101359.53;;;27.97;34.22
6942;BME280;3510;43.200;27.920;2023-05-07T09:48:37;101361.09;;;27.89;34.72
6942;BME280;3510;43.200;27.920;2023-05-07T09:51:16;101355.41;;;28.07;34.28
6942;BME280;3510;43.200;27.920;2023-05-07T09:53:45;101339.38;;;27.47;33.25
6942;BME280;3510;43.200;27.920;2023-05-07T09:56:13;101333.06;;;27.35;33.93
6942;BME280;3510;43.200;27.920;2023-05-07T09:58:42;101353.53;;;27.25;34.78
6942;BME280;3510;43.200;27.920;2023-05-07T10:01:10;101358.06;;;27.72;34.87
6942;BME280;3510;43.200;27.920;2023-05-07T10:03:39;101346.41;;;27.52;36.29
6942;BME280;3510;43.200;27.920;2023-05-07T10:06:09;101367.06;;;27.15;37.29
6942;BME280;3510;43.200;27.920;2023-05-07T10:08:37;101367.81;;;27.11;37.50
6942;BME280;3510;43.200;27.920;2023-05-07T10:11:06;101338.34;;;26.73;38.14
6942;BME280;3510;43.200;27.920;2023-05-07T10:13:33;101370.88;;;26.98;38.40
6942;BME280;3510;43.200;27.920;2023-05-07T10:16:04;101362.09;;;27.24;37.47
6942;BME280;3510;43.200;27.920;2023-05-07T10:18:33;101382.25;;;27.05;38.15
6942;BME280;3510;43.200;27.920;2023-05-07T10:21:04;101341.59;;;26.66;38.27
6942;BME280;3510;43.200;27.920;2023-05-07T10:23:34;101381.88;;;26.91;38.31
6942;BME280;3510;43.200;27.920;2023-05-07T10:26:05;101363.75;;;26.58;38.42
6942;BME280;3510;43.200;27.920;2023-05-07T10:28:38;101378.53;;;26.95;37.91
6942;BME280;3510;43.200;27.920;2023-05-07T10:31:21;101374.44;;;26.70;38.10
6942;BME280;3510;43.200;27.920;2023-05-07T10:33:54;101361.91;;;26.52;38.21
6942;BME280;3510;43.200;27.920;2023-05-07T10:36:22;101368.09;;;26.59;38.37
6942;BME280;3510;43.200;27.920;2023-05-07T10:38:50;101341.44;;;26.29;38.55
6942;BME280;3510;43.200;27.920;2023-05-07T10:41:18;101332.34;;;26.12;38.28
6942;BME280;3510;43.200;27.920;2023-05-07T10:43:46;101369.00;;;26.30;38.31
6942;BME280;3510;43.200;27.920;2023-05-07T10:46:17;101317.97;;;25.92;38.75
6942;BME280;3510;43.200;27.920;2023-05-07T10:49:07;101350.09;;;26.31;37.72
6942;BME280;3510;43.200;27.920;2023-05-07T10:51:35;101370.59;;;26.25;38.51
6942;BME280;3510;43.200;27.920;2023-05-07T10:54:18;101363.19;;;26.09;38.66
6942;BME280;3510;43.200;27.920;2023-05-07T10:56:47;101318.19;;;25.71;38.77
6942;BME280;3510;43.200;27.920;2023-05-07T10:59:33;101374.06;;;25.99;38.42
6942;BME280;3510;43.200;27.920;2023-05-07T11:02:09;101359.00;;;25.57;39.00
6942;BME280;3510;43.200;27.920;2023-05-07T11:07:54;101362.63;;;25.89;39.08
6942;BME280;3510;43.200;27.920;2023-05-07T11:10:21;101351.88;;;26.04;38.57
6942;BME280;3510;43.200;27.920;2023-05-07T11:12:50;101297.41;;;25.95;38.32
6942;BME280;3510;43.200;27.920;2023-05-07T11:15:36;101380.28;;;26.34;37.94
6942;BME280;3510;43.200;27.920;2023-05-07T11:18:05;101379.72;;;26.44;38.52
6942;BME280;3510;43.200;27.920;2023-05-07T11:20:45;101391.63;;;26.69;37.96
6942;BME280;3510;43.200;27.920;2023-05-07T11:23:55;101380.06;;;26.87;37.49
6942;BME280;3510;43.200;27.920;2023-05-07T11:26:25;101378.81;;;26.72;38.23
6942;BME280;3510;43.200;27.920;2023-05-07T11:28:52;101391.19;;;26.52;38.48
6942;BME280;3510;43.200;27.920;2023-05-07T11:31:22;101375.72;;;26.54;38.29
6942;BME280;3510;43.200;27.920;2023-05-07T11:33:52;101335.34;;;25.97;38.50
6942;BME280;3510;43.200;27.920;2023-05-07T11:36:19;101322.66;;;26.05;38.49
6942;BME280;3510;43.200;27.920;2023-05-07T11:38:47;101375.38;;;26.13;38.53
6942;BME280;3510;43.200;27.920;2023-05-07T11:41:16;101341.56;;;26.34;37.69
6942;BME280;3510;43.200;27.920;2023-05-07T11:43:58;101344.84;;;26.59;37.06
6942;BME280;3510;43.200;27.920;2023-05-07T11:46:43;101340.28;;;27.48;35.70
6942;BME280;3510;43.200;27.920;2023-05-07T11:49:12;101329.44;;;28.02;34.14
6942;BME280;3510;43.200;27.920;2023-05-07T11:51:39;101377.53;;;28.76;33.30
6942;BME280;3510;43.200;27.920;2023-05-07T11:54:08;101377.81;;;28.89;32.56
6942;BME280;3510;43.200;27.920;2023-05-07T11:56:37;101370.97;;;29.43;32.25
6942;BME280;3510;43.200;27.920;2023-05-07T11:59:04;101330.22;;;29.36;31.04
6942;BME280;3510;43.200;27.920;2023-05-07T12:01:32;101352.50;;;29.78;30.44
6942;BME280;3510;43.200;27.920;2023-05-07T12:04:03;101288.78;;;30.03;29.91
6942;BME280;3510;43.200;27.920;2023-05-07T12:06:36;101371.22;;;30.95;29.68
6942;BME280;3510;43.200;27.920;2023-05-07T12:09:02;101366.03;;;30.94;29.38
6942;BME280;3510;43.200;27.920;2023-05-07T12:11:32;101310.81;;;31.27;27.94
6942;BME280;3510;43.200;27.920;2023-05-07T12:14:00;101364.78;;;31.49;27.61
6942;BME280;3510;43.200;27.920;2023-05-07T12:16:27;101251.06;;;31.35;26.72
6942;BME280;3510;43.200;27.920;2023-05-07T12:18:55;101344.94;;;31.70;27.36
6942;BME280;3510;43.200;27.920;2023-05-07T12:21:24;101340.84;;;32.12;26.89
6942;BME280;3510;43.200;27.920;2023-05-07T12:23:54;101340.81;;;32.05;26.52
6942;BME280;3510;43.200;27.920;2023-05-07T12:26:21;101356.47;;;32.15;27.15
6942;BME280;3510;43.200;27.920;2023-05-07T12:28:49;101363.59;;;32.59;26.31
6942;BME280;3510;43.200;27.920;2023-05-07T12:31:17;101310.63;;;32.92;25.87
6942;BME280;3510;43.200;27.920;2023-05-07T12:33:44;101363.13;;;31.61;27.00
6942;BME280;3510;43.200;27.920;2023-05-07T12:36:12;101329.84;;;30.31;28.64
6942;BME280;3510;43.200;27.920;2023-05-07T12:38:40;101354.19;;;29.76;29.92
6942;BME280;3510;43.200;27.920;2023-05-07T12:41:10;101344.47;;;29.09;30.59
6942;BME280;3510;43.200;27.920;2023-05-07T12:43:56;101323.44;;;28.45;31.94
6942;BME280;3510;43.200;27.920;2023-05-07T12:46:38;101357.91;;;28.02;32.47
6942;BME280;3510;43.200;27.920;2023-05-07T12:49:05;101256.50;;;26.70;33.77
6942;BME280;3510;43.200;27.920;2023-05-07T12:51:34;101297.22;;;26.81;34.09
6942;BME280;3510;43.200;27.920;2023-05-07T12:54:01;101333.16;;;27.05;33.37
6942;BME280;3510;43.200;27.920;2023-05-07T12:56:35;101328.56;;;26.31;34.55
6942;BME280;3510;43.200;27.920;2023-05-07T12:59:02;101356.50;;;26.14;35.09
6942;BME280;3510;43.200;27.920;2023-05-07T13:01:31;101359.16;;;26.47;35.10
6942;BME280;3510;43.200;27.920;2023-05-07T13:04:00;101315.63;;;26.60;35.00
6942;BME280;3510;43.200;27.920;2023-05-07T13:06:30;101362.13;;;26.61;34.71
6942;BME280;3510;43.200;27.920;2023-05-07T13:08:57;101337.34;;;26.66;34.30
6942;BME280;3510;43.200;27.920;2023-05-07T13:11:24;101326.63;;;26.52;34.86
6942;BME280;3510;43.200;27.920;2023-05-07T13:14:08;101325.00;;;26.56;34.50
6942;BME280;3510;43.200;27.920;2023-05-07T13:16:35;101358.00;;;26.66;34.25
6942;BME280;3510;43.200;27.920;2023-05-07T13:19:16;101325.75;;;26.52;33.97
6942;BME280;3510;43.200;27.920;2023-05-07T13:21:42;101300.03;;;25.68;35.92
6942;BME280;3510;43.200;27.920;2023-05-07T13:24:09;101353.84;;;26.43;35.53
6942;BME280;3510;43.200;27.920;2023-05-07T13:26:36;101303.81;;;26.08;35.25